Details From EGSS - London Stansted
To EGLF - Farnborough
Flight Number -
Tags Routegen Generated
Created
Modified
Stats Distance 51 nm / 95 km
Max Altitude 100 ft / 30 m
Waypoints 6
Social Downloads 1
Likes 0
Share VATSIM

Download

Looking for another format? Having issues loading an existing format? Contact us
Advertisement - Login to hide

Notes

Departing runway 22 EGSS. Arriving runway 6 EGLF.

Route

EGSS +51.82_+000.14 +51.59_+000.23 +51.36_+000.60 +51.31_+000.66 EGLF

ID Type Via Altitude Latitude Longitude Leg Dist Tot Dist Heading (true) Name
O EGSS APT - 0 ft / 0 m 51.87508˚ 0.21993˚ - 0 nm - -
+51.82_+000.14 LATLON - 100 ft / 30 m 51.82197˚ 0.14036˚ 4 nm 4 nm 223° / 223° -
+51.59_+000.23 LATLON - 100 ft / 30 m 51.58989˚ -0.22829˚ 19 nm 23 nm 225° / 224° -
+51.36_+000.60 LATLON - 100 ft / 30 m 51.35781˚ -0.59694˚ 19 nm 43 nm 225° / 225° -
+51.31_+000.66 LATLON - 100 ft / 30 m 51.31479˚ -0.65895˚ 3 nm 46 nm 222° / 222° -
O EGLF APT - 0 ft / 0 m 51.28084˚ -0.76116˚ 4 nm 51 nm 242° / 242° -

Altitude Profile

Advertisement - Login to hide

EGSS

Details ICAO EGSS (STN)
Name London Stansted
Region United Kingdom
Timezone Europe/London (UTC+0.0)
Stats Elevation 348 ft / 106 m (AMSL)
Location 51.885097° 0.234962°
Runways 1
Magnetic Variation 0.362° W

METAR

EGSS 141320Z AUTO 24011KT 9999 SCT026 05/01 Q0989

Decode

TAF

TAF EGSS 141105Z 1412/1518 26012KT 9999 SCT030 BECMG 1417/1420 20009KT TEMPO 1420/1511 7000 SHRA BKN008 PROB30 TEMPO 1500/1511 3000 SHRASN BKN004 BECMG 1507/1510 34010KT PROB30 TEMPO 1511/1518 35015G25KT PROB30 TEMPO 1511/1514 -SHRA BKN014

Decode

Departure Runways

ID Width Length Bearing (true) Bearing (mag) Surface Threshold Offset Overrun Length
04 151 ft / 46 m 10,011 ft / 3,052 m 42.79° 43.15° Asphalt 994 ft / 303 m 0 ft / 0 m
22 151 ft / 46 m 10,011 ft / 3,052 m 222.81° 223.17° Asphalt 0 ft / 0 m 0 ft / 0 m

EGLF

Details ICAO EGLF (FAB)
Name Farnborough
Region United Kingdom
Timezone Europe/London (UTC+0.0)
Stats Elevation 238 ft / 73 m (AMSL)
Location 51.275704° -0.776589°
Runways 1
Magnetic Variation 0.648° W

METAR

EGLF 141320Z 25014KT 9999 FEW022 05/03 Q0991

Decode

TAF

Not found

Destination Runways

ID Width Length Bearing (true) Bearing (mag) Surface Threshold Offset Overrun Length
06 151 ft / 46 m 7,989 ft / 2,435 m 61.95° 62.60° Asphalt 1,762 ft / 537 m 0 ft / 0 m
24 151 ft / 46 m 7,989 ft / 2,435 m 241.98° 242.63° Asphalt 2,090 ft / 637 m 177 ft / 54 m

Approach Navaids

Runway Type Ident Frequency Range Bearing (true) Bearing (mag) Slope Elevation
06 Localiser IFRG 111.55 MHz 18 nm / 33 km 61.98° 62.63° - 228 ft / 69 m (AMSL)
06 Glidescope IFRG 111.55 MHz 10 nm / 19 km 61.97° 62.61° 3.50° 238 ft / 73 m (AMSL)
06 DME IFRG 111.55 MHz 18 nm / 33 km - - - 234 ft / 71 m (AMSL)
24 Localiser IFNB 111.55 MHz 18 nm / 33 km 241.95° 242.60° - 228 ft / 69 m (AMSL)
24 Glidescope IFNB 111.55 MHz 10 nm / 19 km 241.97° 242.61° 3.50° 238 ft / 73 m (AMSL)
24 DME IFNB 111.55 MHz 18 nm / 33 km - - - 234 ft / 71 m (AMSL)